createdAt,value
2022-10-17T00:00:58.644Z,96.97
2022-10-17T00:03:26.407Z,99.82
2022-10-17T00:05:55.349Z,99.15
2022-10-17T00:08:22.934Z,99.61
2022-10-17T00:10:57.965Z,99.77
2022-10-17T00:13:25.725Z,100.00
2022-10-17T00:15:53.159Z,100.00
2022-10-17T00:18:22.760Z,100.00
2022-10-17T00:20:52.345Z,100.00
2022-10-17T00:23:20.188Z,99.95
2022-10-17T00:25:48.732Z,97.87
2022-10-17T00:28:16.174Z,97.50
2022-10-17T00:30:52.762Z,98.54
2022-10-17T00:33:20.720Z,100.00
2022-10-17T00:35:51.162Z,100.00
2022-10-17T00:38:18.869Z,100.00
2022-10-17T00:40:46.976Z,100.00
2022-10-17T00:43:17.119Z,100.00
2022-10-17T00:45:44.577Z,100.00
2022-10-17T00:48:14.252Z,100.00
2022-10-17T00:50:42.057Z,99.91
2022-10-17T00:53:09.464Z,100.00
2022-10-17T00:55:45.688Z,100.00
2022-10-17T00:58:13.127Z,100.00
2022-10-17T01:00:42.798Z,100.00
2022-10-17T01:03:10.238Z,100.00
2022-10-17T01:05:38.003Z,100.00
2022-10-17T01:08:05.471Z,100.00
2022-10-17T01:10:56.953Z,100.00
2022-10-17T01:13:33.298Z,100.00
2022-10-17T01:16:20.857Z,100.00
2022-10-17T01:19:06.173Z,100.00
2022-10-17T01:21:36.959Z,100.00
2022-10-17T01:24:04.351Z,100.00
2022-10-17T01:26:38.115Z,100.00
2022-10-17T01:29:24.371Z,100.00
2022-10-17T01:31:54.936Z,100.00
2022-10-17T01:34:45.724Z,100.00
2022-10-17T01:37:18.396Z,100.00
2022-10-17T01:39:52.099Z,100.00
2022-10-17T01:42:26.284Z,100.00
2022-10-17T01:44:58.994Z,100.00
2022-10-17T01:47:32.912Z,100.00
2022-10-17T01:50:11.500Z,100.00
2022-10-17T01:52:40.470Z,100.00
2022-10-17T01:55:10.419Z,100.00
2022-10-17T01:57:46.351Z,100.00
2022-10-17T02:00:14.711Z,100.00
2022-10-17T02:02:42.293Z,100.00
2022-10-17T02:05:10.052Z,100.00
2022-10-17T02:07:37.909Z,100.00
2022-10-17T02:10:10.236Z,100.00
2022-10-17T02:12:43.783Z,100.00
2022-10-17T02:15:29.243Z,100.00
2022-10-17T02:18:16.590Z,100.00
2022-10-17T02:20:47.697Z,100.00
2022-10-17T02:23:24.386Z,100.00
2022-10-17T02:25:53.903Z,100.00
2022-10-17T02:28:22.022Z,100.00
2022-10-17T02:30:58.539Z,100.00
2022-10-17T02:33:42.340Z,100.00
2022-10-17T02:36:17.387Z,100.00
2022-10-17T02:38:44.831Z,100.00
2022-10-17T02:41:14.767Z,100.00
2022-10-17T02:43:45.451Z,100.00
2022-10-17T02:46:20.808Z,100.00
2022-10-17T02:48:53.258Z,100.00
2022-10-17T02:51:20.784Z,100.00
2022-10-17T02:53:51.492Z,100.00
2022-10-17T02:56:19.348Z,100.00
2022-10-17T02:58:48.264Z,100.00
2022-10-17T03:01:15.944Z,100.00
2022-10-17T03:03:43.678Z,100.00
2022-10-17T03:06:11.041Z,100.00
2022-10-17T03:11:09.940Z,100.00
2022-10-17T03:13:40.041Z,100.00
2022-10-17T03:16:08.041Z,100.00
2022-10-17T03:18:36.403Z,100.00
2022-10-17T03:21:04.912Z,100.00
2022-10-17T03:23:32.352Z,100.00
2022-10-17T03:26:03.364Z,100.00
2022-10-17T03:28:30.959Z,100.00
2022-10-17T03:30:58.777Z,100.00
2022-10-17T03:33:26.073Z,100.00
2022-10-17T03:35:53.534Z,100.00
2022-10-17T03:38:21.386Z,100.00
2022-10-17T03:40:55.687Z,100.00
2022-10-17T03:43:23.476Z,100.00
2022-10-17T03:45:51.005Z,100.00
2022-10-17T03:48:19.644Z,100.00
2022-10-17T03:50:47.018Z,100.00
2022-10-17T03:53:14.563Z,100.00
2022-10-17T03:55:42.003Z,100.00
2022-10-17T03:58:09.401Z,100.00
2022-10-17T04:00:36.828Z,100.00
2022-10-17T04:03:04.359Z,100.00
2022-10-17T04:05:32.721Z,100.00
2022-10-17T04:08:03.837Z,100.00
2022-10-17T04:10:52.429Z,100.00
2022-10-17T04:13:19.861Z,100.00
2022-10-17T04:15:56.804Z,100.00
2022-10-17T04:18:24.550Z,100.00
2022-10-17T04:20:56.882Z,100.00
2022-10-17T04:23:26.650Z,100.00
2022-10-17T04:25:59.161Z,100.00
2022-10-17T04:28:26.866Z,100.00
2022-10-17T04:30:58.171Z,100.00
2022-10-17T04:33:28.062Z,100.00
2022-10-17T04:35:59.590Z,100.00
2022-10-17T04:38:28.688Z,100.00
2022-10-17T16:17:30.847Z,86.58
2022-10-17T16:19:59.390Z,88.11
2022-10-17T16:22:32.438Z,89.42
2022-10-17T16:25:07.970Z,91.43
2022-10-17T16:27:36.453Z,92.20
2022-10-17T16:30:04.853Z,91.23
2022-10-17T16:32:32.509Z,91.39
2022-10-17T16:35:00.197Z,90.27
2022-10-17T16:37:28.572Z,90.10
2022-10-17T16:39:56.244Z,91.65
2022-10-17T16:42:25.654Z,88.98
2022-10-17T16:44:52.984Z,90.83
2022-10-17T16:47:20.378Z,94.23
2022-10-17T16:49:49.549Z,94.13
2022-10-17T16:52:16.995Z,94.38
2022-10-17T16:54:45.408Z,93.35
2022-10-17T16:57:13.345Z,93.05
2022-10-17T16:59:43.028Z,95.08
2022-10-17T17:02:11.699Z,94.06
2022-10-17T17:04:39.340Z,92.41
2022-10-17T17:07:07.570Z,91.83
2022-10-17T17:09:35.823Z,93.17
2022-10-17T17:12:03.405Z,93.30
2022-10-17T17:14:33.837Z,93.67
2022-10-17T17:17:01.817Z,94.69
2022-10-17T17:19:29.854Z,94.23
2022-10-17T17:21:57.227Z,94.42
2022-10-17T17:24:25.592Z,94.87
2022-10-17T17:26:53.849Z,93.87
2022-10-17T17:29:21.651Z,95.13
2022-10-17T17:31:49.625Z,94.93
2022-10-17T17:34:18.251Z,93.65
2022-10-17T17:36:46.046Z,95.44
2022-10-17T17:39:14.179Z,96.34
2022-10-17T17:41:42.069Z,96.30
2022-10-17T17:44:12.574Z,94.76
2022-10-17T17:46:43.766Z,95.51
2022-10-17T17:49:11.699Z,94.86
2022-10-17T17:51:39.089Z,94.34
2022-10-17T17:54:11.381Z,94.86
2022-10-17T17:56:38.886Z,97.20
2022-10-17T17:59:06.296Z,96.71
2022-10-17T18:01:38.000Z,97.13
2022-10-17T18:04:07.061Z,96.50
2022-10-17T18:06:35.943Z,95.85
2022-10-17T18:09:03.756Z,95.54
2022-10-17T18:11:33.177Z,96.95
2022-10-17T18:14:01.617Z,97.24
2022-10-17T18:16:32.108Z,97.80
2022-10-17T18:19:09.155Z,97.06
2022-10-17T18:21:37.469Z,96.41
2022-10-17T18:24:06.214Z,96.29
2022-10-17T18:26:34.506Z,96.80
2022-10-17T18:29:02.306Z,97.34
2022-10-17T18:31:35.774Z,98.21
2022-10-17T18:34:03.888Z,99.25
2022-10-17T18:36:32.435Z,98.33
2022-10-17T18:38:59.958Z,98.19
2022-10-17T18:41:28.044Z,97.66
2022-10-17T18:43:55.876Z,97.87
2022-10-17T18:46:30.486Z,98.55
2022-10-17T18:48:58.200Z,98.06
2022-10-17T18:51:25.772Z,97.26
2022-10-17T18:53:54.514Z,98.82
2022-10-17T18:56:22.161Z,99.59
2022-10-17T18:58:50.037Z,99.07
2022-10-17T19:01:18.589Z,99.55
2022-10-17T19:03:47.236Z,99.83
2022-10-17T19:06:15.859Z,98.69
2022-10-17T19:08:43.335Z,98.50
2022-10-17T19:11:10.802Z,98.59
2022-10-17T19:13:38.121Z,97.93
2022-10-17T19:16:15.463Z,99.38
2022-10-17T19:18:43.039Z,99.71
2022-10-17T19:21:11.445Z,98.36
2022-10-17T19:23:39.875Z,98.22
2022-10-17T19:26:11.322Z,99.56
2022-10-17T19:28:40.108Z,100.00
2022-10-17T19:31:08.324Z,99.00
2022-10-17T19:33:37.466Z,99.95
2022-10-17T19:36:06.458Z,100.00
2022-10-17T19:38:34.047Z,100.00
2022-10-17T19:41:05.230Z,100.00
2022-10-17T19:43:32.722Z,100.00
2022-10-17T19:46:08.772Z,100.00
2022-10-17T19:48:39.316Z,99.56
2022-10-17T19:51:07.836Z,100.00
2022-10-17T19:53:42.464Z,100.00
2022-10-17T19:56:13.389Z,100.00
2022-10-17T19:58:46.601Z,100.00
2022-10-17T20:01:15.356Z,100.00
2022-10-17T20:03:44.509Z,100.00
2022-10-17T20:06:12.320Z,100.00
2022-10-17T20:08:41.335Z,100.00
2022-10-17T20:11:14.513Z,100.00
2022-10-17T20:13:42.808Z,100.00
2022-10-17T20:16:12.883Z,100.00
2022-10-17T20:18:44.466Z,100.00
2022-10-17T20:21:14.453Z,100.00
2022-10-17T20:23:42.251Z,100.00
2022-10-17T20:26:25.995Z,100.00
2022-10-17T20:29:02.694Z,100.00
2022-10-17T20:31:31.625Z,100.00
2022-10-17T20:34:00.063Z,100.00
2022-10-17T20:36:27.713Z,100.00
2022-10-17T20:39:00.901Z,98.41
2022-10-17T20:41:28.460Z,99.42
2022-10-17T20:43:56.105Z,98.81
2022-10-17T20:46:36.239Z,97.49
2022-10-17T20:49:07.599Z,99.97
2022-10-17T20:51:35.877Z,97.94
2022-10-17T20:54:04.671Z,97.85
2022-10-17T20:56:32.501Z,96.61
2022-10-17T20:59:01.068Z,96.21
2022-10-17T21:01:28.905Z,94.48
2022-10-17T21:04:10.637Z,97.26
2022-10-17T21:06:52.024Z,93.15
2022-10-17T21:09:21.147Z,92.14
2022-10-17T21:11:52.910Z,90.53
2022-10-17T21:14:23.336Z,90.11
2022-10-17T21:16:52.420Z,90.94
2022-10-17T21:19:21.834Z,93.27
2022-10-17T21:21:49.306Z,93.89
2022-10-17T21:24:18.175Z,92.89
2022-10-17T21:26:45.786Z,92.31
2022-10-17T21:29:16.867Z,92.17
2022-10-17T21:31:45.431Z,92.16
2022-10-17T21:34:13.862Z,93.33
2022-10-17T21:36:41.416Z,96.02
2022-10-17T21:39:09.675Z,94.33
2022-10-17T21:41:38.731Z,93.75
2022-10-17T21:44:14.834Z,94.24
2022-10-17T21:46:43.203Z,90.78
2022-10-17T21:49:14.064Z,90.46
2022-10-17T21:51:44.897Z,89.41
2022-10-17T21:54:12.308Z,86.74
2022-10-17T21:56:39.617Z,82.97
2022-10-17T21:59:08.873Z,87.83
2022-10-17T22:01:37.216Z,85.35
2022-10-17T22:04:05.803Z,84.95
2022-10-17T22:06:40.909Z,82.75
2022-10-17T22:09:11.739Z,80.38
2022-10-17T22:11:40.184Z,81.81
2022-10-17T22:14:13.711Z,84.05
2022-10-17T22:16:41.207Z,83.83
2022-10-17T22:19:08.699Z,83.43
2022-10-17T22:21:37.288Z,83.54
2022-10-17T22:24:05.847Z,87.04
2022-10-17T22:26:33.731Z,87.59
2022-10-17T22:29:01.884Z,88.37
2022-10-17T22:31:31.057Z,86.67
2022-10-17T22:33:58.889Z,87.18
2022-10-17T22:36:26.193Z,89.86
2022-10-17T22:38:53.976Z,90.24
2022-10-17T22:41:21.410Z,89.98
2022-10-17T22:43:49.949Z,91.22
2022-10-17T22:46:17.460Z,92.66
2022-10-17T22:48:45.328Z,92.07
2022-10-17T22:51:12.744Z,92.14
2022-10-17T22:53:41.705Z,91.05
2022-10-17T22:56:15.946Z,93.03
2022-10-17T22:58:43.774Z,97.04
2022-10-17T23:01:16.813Z,99.60
2022-10-17T23:03:45.248Z,100.00
2022-10-17T23:06:12.640Z,100.00
2022-10-17T23:08:40.890Z,100.00
2022-10-17T23:11:08.289Z,100.00
2022-10-17T23:13:35.991Z,100.00
2022-10-17T23:16:03.872Z,98.74
2022-10-17T23:18:32.548Z,99.42
2022-10-17T23:21:00.270Z,99.85
2022-10-17T23:23:27.578Z,100.00
2022-10-17T23:25:55.038Z,100.00
2022-10-17T23:28:22.425Z,100.00
2022-10-17T23:30:49.812Z,99.08
2022-10-17T23:33:17.445Z,98.13
2022-10-17T23:35:44.987Z,98.03
2022-10-17T23:38:12.255Z,98.14
2022-10-17T23:40:39.736Z,98.89
2022-10-17T23:43:07.130Z,99.33
2022-10-17T23:45:37.175Z,100.00
2022-10-17T23:48:05.338Z,100.00
2022-10-17T23:50:32.705Z,100.00
2022-10-17T23:53:00.396Z,100.00
2022-10-17T23:55:27.807Z,100.00
2022-10-17T23:57:55.258Z,100.00
